Lesley Pg — MXUG5 — position and weather

sailwx.info

Track history (hours):
 
Tides and Currents Weather Stations Pressure Air Temp Water Temp Dewpoint Dewpoint Depression Visibility Wind Speed Wind Dir Waves Ship Positions

Lesley Pg

Last reported at 2017-Jan-19 10:33 UTC. Time now 2017-Jan-19 15:08 UTC.
Position N 17°58' W 066°46'.

Length 102 m; draft 4.7 m.

Type: Tanker. MMSI: 234910000.

Date/timePositionNaut miles runAvg speedWind from/ knotsBaromVisibWave heightAir tempDewpointWater temp
2017-Jan-19 10:33N 17°58' W 066°46'8 8.0
2017-Jan-19 09:33N 17°52' W 066°41'1110.6
2017-Jan-19 08:33N 17°47' W 066°31'1111.3
2017-Jan-19 07:33N 17°47' W 066°20'1111.4
2017-Jan-19 06:33N 17°47' W 066°08'1211.7
2017-Jan-19 05:32N 17°47' W 065°55'8911.0
2017-Jan-18 21:31N 18°19' W 064°28'8 5.5
2017-Jan-18 20:04N 18°27' W 064°27'0 0.0
2017-Jan-18 11:16N 18°27' W 064°27'5 7.3
2017-Jan-18 10:33N 18°22' W 064°25'47 7.3
2017-Jan-18 04:06N 18°09' W 063°38'710.4
2017-Jan-18 03:26N 18°07' W 063°30'910.5
2017-Jan-18 02:33N 18°05' W 063°21'1110.8
2017-Jan-18 01:32N 18°01' W 063°10'5 4.5
2017-Jan-18 00:31N 18°01' W 063°05'0 0.0
2017-Jan-17 23:31N 18°01' W 063°05'0 0.0
2017-Jan-17 22:31N 18°01' W 063°05'0 0.0
2017-Jan-17 21:22N 18°01' W 063°05'0 0.1
2017-Jan-17 20:19N 18°01' W 063°05'0 0.0
2017-Jan-17 19:22N 18°01' W 063°05'0 0.0
2017-Jan-17 18:22N 18°01' W 063°05'0 0.0
2017-Jan-17 17:28N 18°01' W 063°05'0 0.0
2017-Jan-17 16:25N 18°01' W 063°05'0 0.0
2017-Jan-17 15:28N 18°01' W 063°05'0 0.0
2017-Jan-17 14:31N 18°01' W 063°05'0 0.0
2017-Jan-17 13:31N 18°01' W 063°05'0 0.0
2017-Jan-17 12:22N 18°01' W 063°05'6 6.7
2017-Jan-17 11:33N 17°56' W 063°05'7911.3
2017-Jan-17 04:33N 16°43' W 062°31'1211.8
2017-Jan-17 03:33N 16°34' W 062°24'1212.3
2017-Jan-17 02:33N 16°23' W 062°17'5012.3
2017-Jan-16 22:29N 15°43' W 061°46'1112.3
2017-Jan-16 21:33N 15°34' W 061°39'3 0.1
2017-Jan-15 14:30N 15°33' W 061°36'1111.1
2017-Jan-15 13:33N 15°41' W 061°43'4410.9
2017-Jan-15 09:32N 16°15' W 062°11'1110.9
2017-Jan-15 08:33N 16°24' W 062°17'1110.9
2017-Jan-15 07:33N 16°33' W 062°24'1111.4
2017-Jan-15 06:33N 16°43' W 062°30'7011.1
2017-Jan-15 00:14N 17°43' W 063°07'811.2
2017-Jan-14 23:32N 17°51' W 063°09'1111.5
2017-Jan-14 22:33N 18°02' W 063°11'86 1.8
2017-Jan-12 23:33N 16°46' W 062°28'1111.3
2017-Jan-12 22:33N 16°36' W 062°22'1111.2
2017-Jan-12 21:33N 16°27' W 062°16'5910.9
2017-Jan-12 16:09N 15°37' W 061°43'710.4
2017-Jan-12 15:30N 15°32' W 061°38'3 0.5
2017-Jan-12 08:32N 15°35' W 061°40'1210.8
2017-Jan-12 07:25N 15°44' W 061°47'3310.8
2017-Jan-12 04:23N 16°14' W 062°01'911.1
2017-Jan-12 03:33N 16°23' W 062°02'1211.6
2017-Jan-12 02:33N 16°35' W 062°01'1211.8
2017-Jan-12 01:33N 16°47' W 061°60'1211.7
2017-Jan-12 00:33N 16°58' W 061°58'1110.9
2017-Jan-11 23:33N 17°09' W 061°56'4 3.5
2017-Jan-11 22:31N 17°09' W 061°52'0 0.0
2017-Jan-11 21:31N 17°09' W 061°52'0 0.0
2017-Jan-11 20:31N 17°09' W 061°52'0 0.0
2017-Jan-11 19:31N 17°09' W 061°52'0 0.0
2017-Jan-11 18:31N 17°09' W 061°52'0 0.0
2017-Jan-11 17:31N 17°09' W 061°52'0 0.0
2017-Jan-11 16:31N 17°09' W 061°52'0 0.0
2017-Jan-11 15:31N 17°09' W 061°52'0 0.0
2017-Jan-11 14:31N 17°09' W 061°52'0 0.0
2017-Jan-11 13:31N 17°09' W 061°52'0 0.1
2017-Jan-11 12:31N 17°09' W 061°52'0 0.3
2017-Jan-11 11:31N 17°09' W 061°52'0 0.0
2017-Jan-11 10:31N 17°09' W 061°52'0 0.0
2017-Jan-11 09:31N 17°09' W 061°52'0 0.0
2017-Jan-11 08:31N 17°09' W 061°52'0 0.0
2017-Jan-11 07:31N 17°09' W 061°52'0 0.0
2017-Jan-11 06:31N 17°09' W 061°52'0 0.0
2017-Jan-11 05:31N 17°09' W 061°52'0 0.0
2017-Jan-11 04:31N 17°09' W 061°52'0 0.0
2017-Jan-11 03:31N 17°09' W 061°52'0 0.0
2017-Jan-11 02:31N 17°09' W 061°52'0 0.0
2017-Jan-11 01:31N 17°09' W 061°52'0 0.0
2017-Jan-11 00:31N 17°09' W 061°52'0 0.0
2017-Jan-10 23:31N 17°09' W 061°52'0 0.0
2017-Jan-10 22:31N 17°09' W 061°52'0 0.0
2017-Jan-10 21:31N 17°09' W 061°52'0 0.0
2017-Jan-10 20:31N 17°09' W 061°52'0 0.0
2017-Jan-10 19:31N 17°09' W 061°52'0 0.0
2017-Jan-10 18:31N 17°09' W 061°52'0 0.0
2017-Jan-10 17:31N 17°09' W 061°52'0 0.0
2017-Jan-10 16:31N 17°09' W 061°52'0 0.0
2017-Jan-10 15:31N 17°09' W 061°52'0 0.0
2017-Jan-10 14:31N 17°09' W 061°52'0 0.0
2017-Jan-10 13:33N 17°09' W 061°52'1 0.8
2017-Jan-10 12:34N 17°09' W 061°53'8 7.8
2017-Jan-10 11:33N 17°14' W 061°60'0 0.1
2017-Jan-10 10:33N 17°14' W 061°60'1010.2
2017-Jan-10 09:34N 17°20' W 062°08'1010.2
2017-Jan-10 08:34N 17°25' W 062°17'1010.3
2017-Jan-10 07:34N 17°31' W 062°26'0 0.2
2017-Jan-10 06:33N 17°31' W 062°26'0 0.4
2017-Jan-10 05:34N 17°31' W 062°26'40 9.9
2017-Jan-10 01:28N 17°55' W 063°00'8 7.7
2017-Jan-10 00:28N 18°01' W 063°05'0 0.1
2017-Jan-09 23:29N 18°01' W 063°05'0 0.0
2017-Jan-09 22:29N 18°01' W 063°05'0 0.0
2017-Jan-09 21:29N 18°01' W 063°05'0 0.0
2017-Jan-09 20:29N 18°01' W 063°05'0 0.0
2017-Jan-09 19:32N 18°01' W 063°05'0 0.0
2017-Jan-09 18:32N 18°01' W 063°05'3 3.1
2017-Jan-09 17:33N 17°58' W 063°05'1311.6
2017-Jan-09 16:24N 17°46' W 063°09'  
Track history (hours):
 
Tides and Currents Weather Stations Pressure Air Temp Water Temp Dewpoint Dewpoint Depression Visibility Wind Speed Wind Dir Waves Ship Positions

Lesley Pg

Last reported at 2017-Jan-19 10:33 UTC. Time now 2017-Jan-19 15:08 UTC.
Position N 17°58' W 066°46'.

Length 102 m; draft 4.7 m.

Type: Tanker. MMSI: 234910000.

Date/timePositionNaut miles runAvg speedWind from/ knotsBaromVisibWave heightAir tempDewpointWater temp
2017-Jan-19 10:33N 17°58' W 066°46'8 8.0
2017-Jan-19 09:33N 17°52' W 066°41'1110.6
2017-Jan-19 08:33N 17°47' W 066°31'1111.3
2017-Jan-19 07:33N 17°47' W 066°20'1111.4
2017-Jan-19 06:33N 17°47' W 066°08'1211.7
2017-Jan-19 05:32N 17°47' W 065°55'8911.0
2017-Jan-18 21:31N 18°19' W 064°28'8 5.5
2017-Jan-18 20:04N 18°27' W 064°27'0 0.0
2017-Jan-18 11:16N 18°27' W 064°27'5 7.3
2017-Jan-18 10:33N 18°22' W 064°25'47 7.3
2017-Jan-18 04:06N 18°09' W 063°38'710.4
2017-Jan-18 03:26N 18°07' W 063°30'910.5
2017-Jan-18 02:33N 18°05' W 063°21'1110.8
2017-Jan-18 01:32N 18°01' W 063°10'5 4.5
2017-Jan-18 00:31N 18°01' W 063°05'0 0.0
2017-Jan-17 23:31N 18°01' W 063°05'0 0.0
2017-Jan-17 22:31N 18°01' W 063°05'0 0.0
2017-Jan-17 21:22N 18°01' W 063°05'0 0.1
2017-Jan-17 20:19N 18°01' W 063°05'0 0.0
2017-Jan-17 19:22N 18°01' W 063°05'0 0.0
2017-Jan-17 18:22N 18°01' W 063°05'0 0.0
2017-Jan-17 17:28N 18°01' W 063°05'0 0.0
2017-Jan-17 16:25N 18°01' W 063°05'0 0.0
2017-Jan-17 15:28N 18°01' W 063°05'0 0.0
2017-Jan-17 14:31N 18°01' W 063°05'0 0.0
2017-Jan-17 13:31N 18°01' W 063°05'0 0.0
2017-Jan-17 12:22N 18°01' W 063°05'6 6.7
2017-Jan-17 11:33N 17°56' W 063°05'7911.3
2017-Jan-17 04:33N 16°43' W 062°31'1211.8
2017-Jan-17 03:33N 16°34' W 062°24'1212.3
2017-Jan-17 02:33N 16°23' W 062°17'5012.3
2017-Jan-16 22:29N 15°43' W 061°46'1112.3
2017-Jan-16 21:33N 15°34' W 061°39'3 0.1
2017-Jan-15 14:30N 15°33' W 061°36'1111.1
2017-Jan-15 13:33N 15°41' W 061°43'4410.9
2017-Jan-15 09:32N 16°15' W 062°11'1110.9
2017-Jan-15 08:33N 16°24' W 062°17'1110.9
2017-Jan-15 07:33N 16°33' W 062°24'1111.4
2017-Jan-15 06:33N 16°43' W 062°30'7011.1
2017-Jan-15 00:14N 17°43' W 063°07'811.2
2017-Jan-14 23:32N 17°51' W 063°09'1111.5
2017-Jan-14 22:33N 18°02' W 063°11'86 1.8
2017-Jan-12 23:33N 16°46' W 062°28'1111.3
2017-Jan-12 22:33N 16°36' W 062°22'1111.2
2017-Jan-12 21:33N 16°27' W 062°16'5910.9
2017-Jan-12 16:09N 15°37' W 061°43'710.4
2017-Jan-12 15:30N 15°32' W 061°38'3 0.5
2017-Jan-12 08:32N 15°35' W 061°40'1210.8
2017-Jan-12 07:25N 15°44' W 061°47'3310.8
2017-Jan-12 04:23N 16°14' W 062°01'911.1
2017-Jan-12 03:33N 16°23' W 062°02'1211.6
2017-Jan-12 02:33N 16°35' W 062°01'1211.8
2017-Jan-12 01:33N 16°47' W 061°60'1211.7
2017-Jan-12 00:33N 16°58' W 061°58'1110.9
2017-Jan-11 23:33N 17°09' W 061°56'4 3.5
2017-Jan-11 22:31N 17°09' W 061°52'0 0.0
2017-Jan-11 21:31N 17°09' W 061°52'0 0.0
2017-Jan-11 20:31N 17°09' W 061°52'0 0.0
2017-Jan-11 19:31N 17°09' W 061°52'0 0.0
2017-Jan-11 18:31N 17°09' W 061°52'0 0.0
2017-Jan-11 17:31N 17°09' W 061°52'0 0.0
2017-Jan-11 16:31N 17°09' W 061°52'0 0.0
2017-Jan-11 15:31N 17°09' W 061°52'0 0.0
2017-Jan-11 14:31N 17°09' W 061°52'0 0.0
2017-Jan-11 13:31N 17°09' W 061°52'0 0.1
2017-Jan-11 12:31N 17°09' W 061°52'0 0.3
2017-Jan-11 11:31N 17°09' W 061°52'0 0.0
2017-Jan-11 10:31N 17°09' W 061°52'0 0.0
2017-Jan-11 09:31N 17°09' W 061°52'0 0.0
2017-Jan-11 08:31N 17°09' W 061°52'0 0.0
2017-Jan-11 07:31N 17°09' W 061°52'0 0.0
2017-Jan-11 06:31N 17°09' W 061°52'0 0.0
2017-Jan-11 05:31N 17°09' W 061°52'0 0.0
2017-Jan-11 04:31N 17°09' W 061°52'0 0.0
2017-Jan-11 03:31N 17°09' W 061°52'0 0.0
2017-Jan-11 02:31N 17°09' W 061°52'0 0.0
2017-Jan-11 01:31N 17°09' W 061°52'0 0.0
2017-Jan-11 00:31N 17°09' W 061°52'0 0.0
2017-Jan-10 23:31N 17°09' W 061°52'0 0.0
2017-Jan-10 22:31N 17°09' W 061°52'0 0.0
2017-Jan-10 21:31N 17°09' W 061°52'0 0.0
2017-Jan-10 20:31N 17°09' W 061°52'0 0.0
2017-Jan-10 19:31N 17°09' W 061°52'0 0.0
2017-Jan-10 18:31N 17°09' W 061°52'0 0.0
2017-Jan-10 17:31N 17°09' W 061°52'0 0.0
2017-Jan-10 16:31N 17°09' W 061°52'0 0.0
2017-Jan-10 15:31N 17°09' W 061°52'0 0.0
2017-Jan-10 14:31N 17°09' W 061°52'0 0.0
2017-Jan-10 13:33N 17°09' W 061°52'1 0.8
2017-Jan-10 12:34N 17°09' W 061°53'8 7.8
2017-Jan-10 11:33N 17°14' W 061°60'0 0.1
2017-Jan-10 10:33N 17°14' W 061°60'1010.2
2017-Jan-10 09:34N 17°20' W 062°08'1010.2
2017-Jan-10 08:34N 17°25' W 062°17'1010.3
2017-Jan-10 07:34N 17°31' W 062°26'0 0.2
2017-Jan-10 06:33N 17°31' W 062°26'0 0.4
2017-Jan-10 05:34N 17°31' W 062°26'40 9.9
2017-Jan-10 01:28N 17°55' W 063°00'8 7.7
2017-Jan-10 00:28N 18°01' W 063°05'0 0.1
2017-Jan-09 23:29N 18°01' W 063°05'0 0.0
2017-Jan-09 22:29N 18°01' W 063°05'0 0.0
2017-Jan-09 21:29N 18°01' W 063°05'0 0.0
2017-Jan-09 20:29N 18°01' W 063°05'0 0.0
2017-Jan-09 19:32N 18°01' W 063°05'0 0.0
2017-Jan-09 18:32N 18°01' W 063°05'3 3.1
2017-Jan-09 17:33N 17°58' W 063°05'1311.6
2017-Jan-09 16:24N 17°46' W 063°09'  

Dump ship's entire track history